This is the latest recevied weather packets stored in our database for station/object KC3AWA. If no packets are shown the sender has not sent any weather packets the latest 1 day(s).
| Time | Temp. | Humidity | Pressure | Rain* | Wind** | Luminosity | Snow |
|---|---|---|---|---|---|---|---|
| 1778044549 | 10.56° C | 98% | 1009 hPa | 1.27 mm | 0 m/s | 0 W/m² | - |
| 1778044246 | 10.56° C | 98% | 1009 hPa | 1.78 mm | 0 m/s | 0 W/m² | - |
| 1778043944 | 10.56° C | 98% | 1009.1 hPa | 1.78 mm | 0 m/s | 0 W/m² | - |
| 1778043641 | 10.56° C | 98% | 1009.2 hPa | 1.27 mm | 0.45 m/s, 324° | 0 W/m² | - |
| 1778043338 | 10.56° C | 98% | 1009.3 hPa | 1.27 mm | 0 m/s | 0 W/m² | - |
| 1778043034 | 10.56° C | 98% | 1009.2 hPa | 0 mm | 0 m/s | 0 W/m² | - |
| 1778042732 | 10.56° C | 98% | 1009.2 hPa | 0 mm | 0 m/s | 0 W/m² | - |
| 1778042429 | 10.56° C | 98% | 1009.2 hPa | 1.78 mm | 0 m/s | 0 W/m² | - |
| 1778042126 | 10.56° C | 98% | 1009 hPa | 1.78 mm | 0.45 m/s, 167° | 0 W/m² | - |
| 1778041825 | 10.56° C | 98% | 1009.3 hPa | 1.27 mm | 0.45 m/s, 266° | 0 W/m² | - |
| 1778041523 | 10.56° C | 98% | 1008.9 hPa | 3.05 mm | 0.89 m/s, 269° | 0 W/m² | - |
| 1778041221 | 10.56° C | 98% | 1008.8 hPa | 6.6 mm | 0.45 m/s, 237° | 0 W/m² | - |
| 1778040919 | 10.56° C | 98% | 1009 hPa | 6.1 mm | 0 m/s | 0 W/m² | - |
| 1778040616 | 10.56° C | 98% | 1009 hPa | 3.05 mm | 0 m/s | 0 W/m² | - |
| 1778040314 | 10.56° C | 98% | 1008.8 hPa | 4.83 mm | 0.45 m/s, 99° | 0 W/m² | - |
| 1778040009 | 10.56° C | 98% | 1008.9 hPa | 3.05 mm | 0 m/s | 0 W/m² | - |
| 1778039706 | 10.56° C | 98% | 1009 hPa | 1.27 mm | 0 m/s | 0 W/m² | - |
| 1778039403 | 10.56° C | 98% | 1008.9 hPa | 3.05 mm | 0 m/s | 0 W/m² | - |
| 1778039101 | 10.56° C | 98% | 1009 hPa | 1.78 mm | 0 m/s | 0 W/m² | - |
| 1778038797 | 10.56° C | 98% | 1009.2 hPa | 1.27 mm | 0 m/s | 0 W/m² | - |
| 1778038495 | 10.56° C | 97% | 1009.1 hPa | 1.27 mm | 0 m/s | 0 W/m² | - |
| 1778038191 | 10.56° C | 98% | 1009.3 hPa | 0 mm | 0 m/s | 0 W/m² | - |
| 1778037889 | 10.56° C | 97% | 1009.2 hPa | 1.78 mm | 0 m/s | 0 W/m² | - |
| 1778037585 | 10.56° C | 97% | 1009.2 hPa | 1.78 mm | 0 m/s | 0 W/m² | - |
| 1778037283 | 10.56° C | 97% | 1009.3 hPa | 1.27 mm | 0 m/s | 0 W/m² | - |
* Rain latest hour (hover to see other rain measurements)
** Current wind speed in m/s (hover to see current wind gust speed)